N410HA -KLXV
Flight info
| Callsign | N410HA |
|---|---|
| Flight time | N/A |
| Altitude | VFR |
| Route | |
| Aircraft | EC30/L-DOV/C |
Departure
| Time | N/A |
|---|---|
| Airport | - |
Arrival
| Time | 2026-04-22 01:35 |
|---|---|
| Airport | Lake County Airport (KLXV) |
| Time | Latitude | Longitude | Altitude | Speed | Heading |
|---|---|---|---|---|---|
| 2026-04-22 01:21 | 39.62256 | -106.48051 | 9595 ft | 138 kts | 117° |
| 2026-04-22 01:21 | 39.61812 | -106.46951 | 9599 ft | 138 kts | 121° |
| 2026-04-22 01:21 | 39.61372 | -106.45864 | 9601 ft | 136 kts | 122° |
| 2026-04-22 01:22 | 39.60834 | -106.44855 | 9621 ft | 135 kts | 135° |
| 2026-04-22 01:22 | 39.60188 | -106.43971 | 9622 ft | 133 kts | 146° |
| 2026-04-22 01:22 | 39.59463 | -106.43208 | 9623 ft | 134 kts | 146° |
| 2026-04-22 01:22 | 39.58743 | -106.42450 | 9635 ft | 134 kts | 146° |
| 2026-04-22 01:23 | 39.58008 | -106.41670 | 9630 ft | 136 kts | 146° |
| 2026-04-22 01:23 | 39.57291 | -106.40927 | 9775 ft | 126 kts | 146° |
| 2026-04-22 01:23 | 39.56505 | -106.40461 | 9969 ft | 122 kts | 159° |
| 2026-04-22 01:23 | 39.55687 | -106.40147 | 10157 ft | 121 kts | 172° |
| 2026-04-22 01:24 | 39.54834 | -106.39925 | 10366 ft | 120 kts | 171° |
| 2026-04-22 01:24 | 39.53972 | -106.39709 | 10588 ft | 120 kts | 171° |
| 2026-04-22 01:24 | 39.53153 | -106.39336 | 10786 ft | 121 kts | 162° |
| 2026-04-22 01:24 | 39.52358 | -106.38889 | 10989 ft | 120 kts | 155° |
| 2026-04-22 01:25 | 39.51591 | -106.38400 | 11211 ft | 119 kts | 156° |
| 2026-04-22 01:25 | 39.50829 | -106.37914 | 11410 ft | 118 kts | 155° |
| 2026-04-22 01:25 | 39.50081 | -106.37444 | 11596 ft | 118 kts | 156° |
| 2026-04-22 01:25 | 39.49285 | -106.37035 | 11778 ft | 120 kts | 160° |
| 2026-04-22 01:26 | 39.48471 | -106.36641 | 11957 ft | 120 kts | 161° |
| 2026-04-22 01:26 | 39.47656 | -106.36285 | 12148 ft | 119 kts | 163° |
| 2026-04-22 01:26 | 39.46831 | -106.35926 | 12342 ft | 119 kts | 163° |
| 2026-04-22 01:26 | 39.46013 | -106.35571 | 12538 ft | 118 kts | 163° |
| 2026-04-22 01:27 | 39.45174 | -106.35193 | 12546 ft | 129 kts | 164° |
| 2026-04-22 01:27 | 39.44323 | -106.34782 | 12541 ft | 130 kts | 163° |
| 2026-04-22 01:27 | 39.43476 | -106.34383 | 12542 ft | 129 kts | 167° |
| 2026-04-22 01:27 | 39.42567 | -106.34045 | 12544 ft | 130 kts | 168° |
| 2026-04-22 01:28 | 39.41624 | -106.33800 | 12538 ft | 129 kts | 178° |
| 2026-04-22 01:28 | 39.40663 | -106.33659 | 12538 ft | 129 kts | 177° |
| 2026-04-22 01:28 | 39.39724 | -106.33497 | 12544 ft | 128 kts | 176° |
| 2026-04-22 01:28 | 39.38817 | -106.33339 | 12541 ft | 129 kts | 177° |
| 2026-04-22 01:29 | 39.37920 | -106.33176 | 12542 ft | 128 kts | 177° |
| 2026-04-22 01:29 | 39.37003 | -106.33006 | 12527 ft | 128 kts | 176° |
| 2026-04-22 01:29 | 39.36091 | -106.32843 | 12471 ft | 129 kts | 178° |
| 2026-04-22 01:29 | 39.35162 | -106.32583 | 12389 ft | 130 kts | 171° |
| 2026-04-22 01:30 | 39.34262 | -106.32297 | 12336 ft | 131 kts | 172° |
| 2026-04-22 01:30 | 39.33360 | -106.32001 | 12277 ft | 131 kts | 171° |
| 2026-04-22 01:30 | 39.32468 | -106.31705 | 12224 ft | 132 kts | 171° |
| 2026-04-22 01:30 | 39.31570 | -106.31403 | 12159 ft | 132 kts | 171° |
| 2026-04-22 01:31 | 39.30666 | -106.31094 | 12091 ft | 132 kts | 171° |
| 2026-04-22 01:31 | 39.29779 | -106.30764 | 11993 ft | 127 kts | 171° |
| 2026-04-22 01:31 | 39.28946 | -106.30443 | 11925 ft | 119 kts | 170° |
| 2026-04-22 01:31 | 39.28155 | -106.30160 | 11863 ft | 117 kts | 170° |
| 2026-04-22 01:32 | 39.27366 | -106.29879 | 11789 ft | 115 kts | 172° |
| 2026-04-22 01:32 | 39.26606 | -106.29593 | 11650 ft | 106 kts | 173° |
| 2026-04-22 01:32 | 39.25921 | -106.29327 | 11564 ft | 100 kts | 173° |
| 2026-04-22 01:32 | 39.25261 | -106.29079 | 11522 ft | 90 kts | 175° |
| 2026-04-22 01:33 | 39.24655 | -106.28968 | 11590 ft | 86 kts | 176° |
| 2026-04-22 01:33 | 39.24036 | -106.28876 | 11561 ft | 89 kts | 181° |
| 2026-04-22 01:33 | 39.23411 | -106.28808 | 11467 ft | 88 kts | 185° |
| 2026-04-22 01:33 | 39.22776 | -106.28842 | 11326 ft | 89 kts | 193° |
| 2026-04-22 01:34 | 39.22156 | -106.28928 | 11173 ft | 88 kts | 195° |
| 2026-04-22 01:34 | 39.21663 | -106.29226 | 11084 ft | 70 kts | 226° |
| 2026-04-22 01:34 | 39.21391 | -106.29735 | 10935 ft | 70 kts | 248° |
| 2026-04-22 01:34 | 39.21266 | -106.30363 | 10741 ft | 73 kts | 266° |
| 2026-04-22 01:35 | 39.21284 | -106.30971 | 10570 ft | 58 kts | 285° |
| 2026-04-22 01:35 | 39.21446 | -106.31345 | 10353 ft | 40 kts | 336° |
| 2026-04-22 01:35 | 39.21658 | -106.31444 | 10136 ft | 29 kts | 341° |
| 2026-04-22 01:35 | 39.21792 | -106.31468 | 10007 ft | 12 kts | 337° |
| 2026-04-22 01:36 | 39.21865 | -106.31493 | 9997 ft | 13 kts | 341° |
| 2026-04-22 01:36 | 39.21936 | -106.31509 | 9997 ft | 12 kts | 342° |
| 2026-04-22 01:36 | 39.21989 | -106.31517 | 9982 ft | 2 kts | 341° |
| 2026-04-22 01:36 | 39.22011 | -106.31516 | 9965 ft | 0 kts | 349° |